Highland Center, IA

06:37 PM CST af November 22, 2014 (GMT -0600)
East | Change Station
CLOSE
Current Station
Personal Weather Stations
Location: Ottumwa, IA
Elevation: 833 ft
Nearby Weather Stations

Elev 833 ft 41.03 °N, 92.40 °W | Updated 1 second ago

farvolknt
farvolknt
55.2 °f
Feels Like 55.2 °f
N
7.8
vint baytevdik vint from dorem[d]
Gusts 7.8 mph

haynt
High -- | Low -- °f
--% Chance of Precip.
Yesterday
High -- | Low -- °f
Precip. -- in
7:05 AM 4:45 PM
New, 0% visible
druk 29.76 in
zeevdikeyt 9.0 mayln
Clouds tsevorfene volkns 1300 ft
farvolknt 1900 ft
toypunkt 51 °f
faykhtkeyt 86%
Rainfall 0.00 in
Snow Depth Not available.
UV 0 out of 12
Pollen .10 out of 12
Air Quality Not available.
Flu Activity Not available.
SPECI KOTM 230003Z AUTO 18010KT 9SM SCT013 OVC019 13/11 A2976 RMK AO2 T01280106

More Conditions Fewer Conditions

druk 29.76 in
zeevdikeyt 9.0 mayln
Clouds tsevorfene volkns 1300 ft
farvolknt 1900 ft
toypunkt 51 °f
faykhtkeyt 86%
Rainfall 0.00 in
Snow Depth Not available.
UV 0 out of 12
Pollen .10 out of 12
Air Quality Not available.
Flu Activity Not available.
SPECI KOTM 230003Z AUTO 18010KT 9SM SCT013 OVC019 13/11 A2976 RMK AO2 T01280106

More Conditions Fewer Conditions

10-Day Weather Forecast

Almanac

Astronomy

Nov. 22, 2014 Rise Set
Actual Time
Civil Twilight
Nautical Twilight
Astronomical Twilight
Moon
Length Of Visible Light
Length of Day
Tomorrow will be .
, % of the Moon is Illuminated

Today's Extremes

State Highs State Lows

Community

WunderPhotos

Upload Photos

1,772,938 photos uploaded!

WunderBlogs® & News

Nearby

Air Quality

  Air Quality AQ Index Pollutant
Not available.

Snow Depth

Station Depth Elevation

Earthquake Activity

City Distance Mag. Time & Date
Minimum magnitude displayed is 2.5.

Coastal Water Temperatures

plats temperatur

Nearby Weather Stations